sensor_id;sensor_type;location;lat;lon;timestamp;temperature;humidity
22680;DHT22;11507;44.858;10.374;2023-07-28T00:02:07;19.20;99.90
22680;DHT22;11507;44.858;10.374;2023-07-28T00:04:36;19.20;99.90
22680;DHT22;11507;44.858;10.374;2023-07-28T00:07:03;19.10;99.90
22680;DHT22;11507;44.858;10.374;2023-07-28T00:09:29;19.10;99.90
22680;DHT22;11507;44.858;10.374;2023-07-28T00:11:57;19.00;99.90
22680;DHT22;11507;44.858;10.374;2023-07-28T00:14:23;19.00;99.90
22680;DHT22;11507;44.858;10.374;2023-07-28T00:16:53;19.00;99.90
22680;DHT22;11507;44.858;10.374;2023-07-28T00:19:20;19.00;99.90
22680;DHT22;11507;44.858;10.374;2023-07-28T00:21:50;19.00;99.90
22680;DHT22;11507;44.858;10.374;2023-07-28T00:24:16;18.90;99.90
22680;DHT22;11507;44.858;10.374;2023-07-28T00:26:43;18.80;99.90
22680;DHT22;11507;44.858;10.374;2023-07-28T00:29:10;18.70;99.90
22680;DHT22;11507;44.858;10.374;2023-07-28T00:31:36;18.60;99.90
22680;DHT22;11507;44.858;10.374;2023-07-28T00:34:03;18.60;99.90
22680;DHT22;11507;44.858;10.374;2023-07-28T00:36:30;18.50;99.90
22680;DHT22;11507;44.858;10.374;2023-07-28T00:38:56;18.50;99.90
22680;DHT22;11507;44.858;10.374;2023-07-28T00:41:22;18.40;99.90
22680;DHT22;11507;44.858;10.374;2023-07-28T00:43:51;18.40;99.90
22680;DHT22;11507;44.858;10.374;2023-07-28T00:46:17;18.40;99.90
22680;DHT22;11507;44.858;10.374;2023-07-28T00:48:43;18.50;99.90
22680;DHT22;11507;44.858;10.374;2023-07-28T00:51:11;18.50;99.90
22680;DHT22;11507;44.858;10.374;2023-07-28T00:53:37;18.50;99.90
22680;DHT22;11507;44.858;10.374;2023-07-28T00:56:07;18.40;99.90
22680;DHT22;11507;44.858;10.374;2023-07-28T00:58:33;18.40;99.90
22680;DHT22;11507;44.858;10.374;2023-07-28T01:00:59;18.30;99.90
22680;DHT22;11507;44.858;10.374;2023-07-28T01:03:26;18.20;99.90
22680;DHT22;11507;44.858;10.374;2023-07-28T01:06:53;18.20;99.90
22680;DHT22;11507;44.858;10.374;2023-07-28T01:09:02;18.10;99.90
22680;DHT22;11507;44.858;10.374;2023-07-28T01:11:29;18.10;99.90
22680;DHT22;11507;44.858;10.374;2023-07-28T01:13:55;18.10;99.90
22680;DHT22;11507;44.858;10.374;2023-07-28T01:16:21;18.10;99.90
22680;DHT22;11507;44.858;10.374;2023-07-28T01:18:47;18.10;99.90
22680;DHT22;11507;44.858;10.374;2023-07-28T01:21:34;18.10;99.90
22680;DHT22;11507;44.858;10.374;2023-07-28T01:26:39;18.00;99.90
22680;DHT22;11507;44.858;10.374;2023-07-28T01:29:05;18.00;99.90
22680;DHT22;11507;44.858;10.374;2023-07-28T01:31:32;17.90;99.90
22680;DHT22;11507;44.858;10.374;2023-07-28T01:33:58;18.00;99.90
22680;DHT22;11507;44.858;10.374;2023-07-28T01:36:23;18.00;99.90
22680;DHT22;11507;44.858;10.374;2023-07-28T01:38:49;17.90;99.90
22680;DHT22;11507;44.858;10.374;2023-07-28T01:41:15;17.90;99.90
22680;DHT22;11507;44.858;10.374;2023-07-28T01:43:41;17.90;99.90
22680;DHT22;11507;44.858;10.374;2023-07-28T01:46:07;17.80;99.90
22680;DHT22;11507;44.858;10.374;2023-07-28T01:48:33;17.80;99.90
22680;DHT22;11507;44.858;10.374;2023-07-28T01:50:59;17.80;99.90
22680;DHT22;11507;44.858;10.374;2023-07-28T01:53:25;17.80;99.90
22680;DHT22;11507;44.858;10.374;2023-07-28T01:55:51;17.80;99.90
22680;DHT22;11507;44.858;10.374;2023-07-28T01:58:17;17.80;99.90
22680;DHT22;11507;44.858;10.374;2023-07-28T02:00:43;17.80;99.90
22680;DHT22;11507;44.858;10.374;2023-07-28T02:03:08;17.80;99.90
22680;DHT22;11507;44.858;10.374;2023-07-28T02:05:35;17.70;99.90
22680;DHT22;11507;44.858;10.374;2023-07-28T02:08:00;17.70;99.90
22680;DHT22;11507;44.858;10.374;2023-07-28T02:10:29;17.70;99.90
22680;DHT22;11507;44.858;10.374;2023-07-28T02:12:55;17.70;99.90
22680;DHT22;11507;44.858;10.374;2023-07-28T02:15:21;17.70;99.90
22680;DHT22;11507;44.858;10.374;2023-07-28T02:17:47;17.70;99.90
22680;DHT22;11507;44.858;10.374;2023-07-28T02:20:13;17.80;99.90
22680;DHT22;11507;44.858;10.374;2023-07-28T02:22:41;17.70;99.90
22680;DHT22;11507;44.858;10.374;2023-07-28T02:25:07;17.70;99.90
22680;DHT22;11507;44.858;10.374;2023-07-28T02:27:33;17.70;99.90
22680;DHT22;11507;44.858;10.374;2023-07-28T02:29:59;17.70;99.90
22680;DHT22;11507;44.858;10.374;2023-07-28T02:32:27;17.70;99.90
22680;DHT22;11507;44.858;10.374;2023-07-28T02:34:54;17.70;99.90
22680;DHT22;11507;44.858;10.374;2023-07-28T02:37:20;17.80;99.90
22680;DHT22;11507;44.858;10.374;2023-07-28T02:39:46;17.80;99.90
22680;DHT22;11507;44.858;10.374;2023-07-28T02:42:12;17.80;99.90
22680;DHT22;11507;44.858;10.374;2023-07-28T02:44:38;17.80;99.90
22680;DHT22;11507;44.858;10.374;2023-07-28T02:47:04;17.70;99.90
22680;DHT22;11507;44.858;10.374;2023-07-28T02:49:30;17.70;99.90
22680;DHT22;11507;44.858;10.374;2023-07-28T02:51:56;17.70;99.90
22680;DHT22;11507;44.858;10.374;2023-07-28T02:54:22;17.70;99.90
22680;DHT22;11507;44.858;10.374;2023-07-28T02:56:49;17.60;99.90
22680;DHT22;11507;44.858;10.374;2023-07-28T02:59:15;17.60;99.90
22680;DHT22;11507;44.858;10.374;2023-07-28T03:01:41;17.60;99.90
22680;DHT22;11507;44.858;10.374;2023-07-28T03:04:07;17.60;99.90
22680;DHT22;11507;44.858;10.374;2023-07-28T03:06:53;17.50;99.90
22680;DHT22;11507;44.858;10.374;2023-07-28T03:09:20;17.60;99.90
22680;DHT22;11507;44.858;10.374;2023-07-28T03:11:53;17.50;99.90
22680;DHT22;11507;44.858;10.374;2023-07-28T03:14:19;17.50;99.90
22680;DHT22;11507;44.858;10.374;2023-07-28T03:16:45;17.50;99.90
22680;DHT22;11507;44.858;10.374;2023-07-28T03:19:10;17.40;99.90
22680;DHT22;11507;44.858;10.374;2023-07-28T03:21:36;17.40;99.90
22680;DHT22;11507;44.858;10.374;2023-07-28T03:24:02;17.30;99.90
22680;DHT22;11507;44.858;10.374;2023-07-28T03:26:28;17.20;99.90
22680;DHT22;11507;44.858;10.374;2023-07-28T03:28:54;17.10;99.90
22680;DHT22;11507;44.858;10.374;2023-07-28T03:31:20;17.00;99.90
22680;DHT22;11507;44.858;10.374;2023-07-28T03:33:46;16.90;99.90
22680;DHT22;11507;44.858;10.374;2023-07-28T03:36:11;16.80;99.90
22680;DHT22;11507;44.858;10.374;2023-07-28T03:38:38;16.70;99.90
22680;DHT22;11507;44.858;10.374;2023-07-28T03:41:05;16.70;99.90
22680;DHT22;11507;44.858;10.374;2023-07-28T03:43:32;16.60;99.90
22680;DHT22;11507;44.858;10.374;2023-07-28T03:45:58;16.60;99.90
22680;DHT22;11507;44.858;10.374;2023-07-28T03:48:26;16.60;99.90
22680;DHT22;11507;44.858;10.374;2023-07-28T03:50:52;16.50;99.90
22680;DHT22;11507;44.858;10.374;2023-07-28T03:53:17;16.50;99.90
22680;DHT22;11507;44.858;10.374;2023-07-28T03:55:43;16.50;99.90
22680;DHT22;11507;44.858;10.374;2023-07-28T03:58:09;16.50;99.90
22680;DHT22;11507;44.858;10.374;2023-07-28T04:00:34;16.50;99.90
22680;DHT22;11507;44.858;10.374;2023-07-28T04:03:00;16.50;99.90
22680;DHT22;11507;44.858;10.374;2023-07-28T04:05:26;16.50;99.90
22680;DHT22;11507;44.858;10.374;2023-07-28T04:07:52;16.50;99.90
22680;DHT22;11507;44.858;10.374;2023-07-28T04:10:18;16.50;99.90
22680;DHT22;11507;44.858;10.374;2023-07-28T04:12:44;16.60;99.90
22680;DHT22;11507;44.858;10.374;2023-07-28T04:15:10;16.70;99.90
22680;DHT22;11507;44.858;10.374;2023-07-28T04:17:36;16.60;99.90
22680;DHT22;11507;44.858;10.374;2023-07-28T04:20:01;16.80;99.90
22680;DHT22;11507;44.858;10.374;2023-07-28T04:22:27;16.80;99.90
22680;DHT22;11507;44.858;10.374;2023-07-28T04:24:54;17.00;99.90
22680;DHT22;11507;44.858;10.374;2023-07-28T04:27:20;17.10;99.90
22680;DHT22;11507;44.858;10.374;2023-07-28T04:29:47;17.20;99.90
22680;DHT22;11507;44.858;10.374;2023-07-28T04:32:18;17.30;99.90
22680;DHT22;11507;44.858;10.374;2023-07-28T04:34:44;17.40;99.90
22680;DHT22;11507;44.858;10.374;2023-07-28T04:37:14;17.50;99.90
22680;DHT22;11507;44.858;10.374;2023-07-28T04:40:00;17.60;99.90
22680;DHT22;11507;44.858;10.374;2023-07-28T04:42:32;17.80;99.90
22680;DHT22;11507;44.858;10.374;2023-07-28T04:44:58;17.90;99.90
22680;DHT22;11507;44.858;10.374;2023-07-28T04:47:24;18.00;99.90
22680;DHT22;11507;44.858;10.374;2023-07-28T04:49:50;18.00;99.90
22680;DHT22;11507;44.858;10.374;2023-07-28T04:52:42;18.10;99.90
22680;DHT22;11507;44.858;10.374;2023-07-28T04:55:31;18.10;99.90
22680;DHT22;11507;44.858;10.374;2023-07-28T04:57:57;18.20;99.90
22680;DHT22;11507;44.858;10.374;2023-07-28T05:00:25;18.30;99.90
22680;DHT22;11507;44.858;10.374;2023-07-28T05:02:51;18.50;99.90
22680;DHT22;11507;44.858;10.374;2023-07-28T05:05:18;18.50;99.90
22680;DHT22;11507;44.858;10.374;2023-07-28T05:07:43;18.50;99.90
22680;DHT22;11507;44.858;10.374;2023-07-28T05:10:13;18.60;99.90
22680;DHT22;11507;44.858;10.374;2023-07-28T05:12:39;18.70;99.90
22680;DHT22;11507;44.858;10.374;2023-07-28T05:15:05;18.80;99.90
22680;DHT22;11507;44.858;10.374;2023-07-28T05:17:37;18.80;99.90
22680;DHT22;11507;44.858;10.374;2023-07-28T05:20:42;18.70;99.90
22680;DHT22;11507;44.858;10.374;2023-07-28T05:23:14;18.80;99.90
22680;DHT22;11507;44.858;10.374;2023-07-28T05:25:41;18.80;99.90
22680;DHT22;11507;44.858;10.374;2023-07-28T05:28:07;18.90;99.90
22680;DHT22;11507;44.858;10.374;2023-07-28T05:30:36;19.00;99.90
22680;DHT22;11507;44.858;10.374;2023-07-28T05:33:01;19.00;99.90
22680;DHT22;11507;44.858;10.374;2023-07-28T05:35:34;19.00;99.90
22680;DHT22;11507;44.858;10.374;2023-07-28T05:38:00;19.00;99.90
22680;DHT22;11507;44.858;10.374;2023-07-28T05:40:26;19.10;99.90
22680;DHT22;11507;44.858;10.374;2023-07-28T05:42:52;19.20;99.90
22680;DHT22;11507;44.858;10.374;2023-07-28T05:45:18;19.30;99.90
22680;DHT22;11507;44.858;10.374;2023-07-28T05:47:44;19.40;99.90
22680;DHT22;11507;44.858;10.374;2023-07-28T05:50:10;19.50;99.90
22680;DHT22;11507;44.858;10.374;2023-07-28T05:52:35;19.60;99.90
22680;DHT22;11507;44.858;10.374;2023-07-28T05:55:01;19.80;99.90
22680;DHT22;11507;44.858;10.374;2023-07-28T05:57:27;19.90;99.90
22680;DHT22;11507;44.858;10.374;2023-07-28T05:59:53;20.00;99.90
22680;DHT22;11507;44.858;10.374;2023-07-28T06:02:19;20.10;99.90
22680;DHT22;11507;44.858;10.374;2023-07-28T06:04:53;20.30;99.90
22680;DHT22;11507;44.858;10.374;2023-07-28T06:07:19;20.40;99.90
22680;DHT22;11507;44.858;10.374;2023-07-28T06:09:45;20.50;99.90
22680;DHT22;11507;44.858;10.374;2023-07-28T06:12:11;20.70;99.90
22680;DHT22;11507;44.858;10.374;2023-07-28T06:14:37;20.80;99.90
22680;DHT22;11507;44.858;10.374;2023-07-28T06:17:06;21.00;99.90
22680;DHT22;11507;44.858;10.374;2023-07-28T06:19:33;21.10;99.90
22680;DHT22;11507;44.858;10.374;2023-07-28T06:21:59;21.20;99.90
22680;DHT22;11507;44.858;10.374;2023-07-28T06:24:26;21.40;99.90
22680;DHT22;11507;44.858;10.374;2023-07-28T06:26:51;21.40;99.90
22680;DHT22;11507;44.858;10.374;2023-07-28T06:29:17;21.50;99.90
22680;DHT22;11507;44.858;10.374;2023-07-28T06:31:43;21.60;99.90
22680;DHT22;11507;44.858;10.374;2023-07-28T06:34:09;21.60;99.90
22680;DHT22;11507;44.858;10.374;2023-07-28T06:36:35;21.70;99.90
22680;DHT22;11507;44.858;10.374;2023-07-28T06:39:01;21.80;99.90
22680;DHT22;11507;44.858;10.374;2023-07-28T06:41:27;21.90;99.90
22680;DHT22;11507;44.858;10.374;2023-07-28T06:44:00;22.00;99.90
22680;DHT22;11507;44.858;10.374;2023-07-28T06:46:28;22.10;99.90
22680;DHT22;11507;44.858;10.374;2023-07-28T06:48:54;22.30;99.90
22680;DHT22;11507;44.858;10.374;2023-07-28T06:51:20;22.50;99.90
22680;DHT22;11507;44.858;10.374;2023-07-28T06:53:45;22.70;99.90
22680;DHT22;11507;44.858;10.374;2023-07-28T06:56:11;22.90;99.90
22680;DHT22;11507;44.858;10.374;2023-07-28T06:58:37;23.10;99.90
22680;DHT22;11507;44.858;10.374;2023-07-28T07:01:03;23.20;99.90
22680;DHT22;11507;44.858;10.374;2023-07-28T07:03:29;23.30;99.90
22680;DHT22;11507;44.858;10.374;2023-07-28T07:05:55;23.40;99.90
22680;DHT22;11507;44.858;10.374;2023-07-28T07:08:21;23.40;99.90
22680;DHT22;11507;44.858;10.374;2023-07-28T07:10:49;23.40;99.90
22680;DHT22;11507;44.858;10.374;2023-07-28T07:13:16;23.30;99.90
22680;DHT22;11507;44.858;10.374;2023-07-28T07:15:42;23.40;99.90
22680;DHT22;11507;44.858;10.374;2023-07-28T07:18:08;23.40;99.90
22680;DHT22;11507;44.858;10.374;2023-07-28T07:20:35;23.70;99.90
22680;DHT22;11507;44.858;10.374;2023-07-28T07:23:01;23.90;99.90
22680;DHT22;11507;44.858;10.374;2023-07-28T07:25:27;24.10;99.90
22680;DHT22;11507;44.858;10.374;2023-07-28T07:27:53;24.30;99.90
22680;DHT22;11507;44.858;10.374;2023-07-28T07:30:19;24.60;99.90
22680;DHT22;11507;44.858;10.374;2023-07-28T07:32:45;24.90;99.90
22680;DHT22;11507;44.858;10.374;2023-07-28T07:35:11;25.20;99.90
22680;DHT22;11507;44.858;10.374;2023-07-28T07:37:38;25.30;99.90
22680;DHT22;11507;44.858;10.374;2023-07-28T07:40:05;25.50;99.90
22680;DHT22;11507;44.858;10.374;2023-07-28T07:42:45;25.70;99.20
22680;DHT22;11507;44.858;10.374;2023-07-28T07:45:12;25.70;99.90
22680;DHT22;11507;44.858;10.374;2023-07-28T07:47:39;25.60;96.20
22680;DHT22;11507;44.858;10.374;2023-07-28T07:50:07;25.60;98.10
22680;DHT22;11507;44.858;10.374;2023-07-28T07:52:35;25.70;98.30
22680;DHT22;11507;44.858;10.374;2023-07-28T07:55:03;25.80;97.30
22680;DHT22;11507;44.858;10.374;2023-07-28T07:57:29;26.00;96.20
22680;DHT22;11507;44.858;10.374;2023-07-28T07:59:57;25.90;96.60
22680;DHT22;11507;44.858;10.374;2023-07-28T08:02:23;26.00;95.90
22680;DHT22;11507;44.858;10.374;2023-07-28T08:04:49;26.10;94.90
22680;DHT22;11507;44.858;10.374;2023-07-28T08:07:15;26.00;95.40
22680;DHT22;11507;44.858;10.374;2023-07-28T08:09:45;26.10;95.60
22680;DHT22;11507;44.858;10.374;2023-07-28T08:12:12;26.30;95.20
22680;DHT22;11507;44.858;10.374;2023-07-28T08:14:38;26.30;95.40
22680;DHT22;11507;44.858;10.374;2023-07-28T08:17:04;26.30;95.00
22680;DHT22;11507;44.858;10.374;2023-07-28T08:19:30;26.30;94.80
22680;DHT22;11507;44.858;10.374;2023-07-28T08:21:56;26.50;94.90
22680;DHT22;11507;44.858;10.374;2023-07-28T08:24:22;26.60;96.10
22680;DHT22;11507;44.858;10.374;2023-07-28T08:26:48;26.60;94.30
22680;DHT22;11507;44.858;10.374;2023-07-28T08:29:15;26.60;94.90
22680;DHT22;11507;44.858;10.374;2023-07-28T08:31:40;26.70;95.20
22680;DHT22;11507;44.858;10.374;2023-07-28T08:34:07;26.80;93.90
22680;DHT22;11507;44.858;10.374;2023-07-28T08:36:34;26.90;95.50
22680;DHT22;11507;44.858;10.374;2023-07-28T08:39:00;27.10;96.30
22680;DHT22;11507;44.858;10.374;2023-07-28T08:41:25;27.30;93.80
22680;DHT22;11507;44.858;10.374;2023-07-28T08:43:53;27.50;96.70
22680;DHT22;11507;44.858;10.374;2023-07-28T08:46:20;27.70;95.10
22680;DHT22;11507;44.858;10.374;2023-07-28T08:48:46;27.90;92.70
22680;DHT22;11507;44.858;10.374;2023-07-28T08:51:13;27.90;92.50
22680;DHT22;11507;44.858;10.374;2023-07-28T08:53:39;28.10;95.40
22680;DHT22;11507;44.858;10.374;2023-07-28T08:56:06;28.40;93.80
22680;DHT22;11507;44.858;10.374;2023-07-28T08:58:32;28.60;93.10
22680;DHT22;11507;44.858;10.374;2023-07-28T09:00:59;28.80;93.00
22680;DHT22;11507;44.858;10.374;2023-07-28T09:03:29;29.00;91.50
22680;DHT22;11507;44.858;10.374;2023-07-28T09:06:02;29.10;90.70
22680;DHT22;11507;44.858;10.374;2023-07-28T09:08:30;29.20;91.30
22680;DHT22;11507;44.858;10.374;2023-07-28T09:11:02;29.30;90.50
22680;DHT22;11507;44.858;10.374;2023-07-28T09:13:41;29.40;90.20
22680;DHT22;11507;44.858;10.374;2023-07-28T09:16:20;29.30;90.00
22680;DHT22;11507;44.858;10.374;2023-07-28T09:18:46;29.30;90.20
22680;DHT22;11507;44.858;10.374;2023-07-28T09:21:19;29.30;90.00
22680;DHT22;11507;44.858;10.374;2023-07-28T09:23:50;29.50;90.30
22680;DHT22;11507;44.858;10.374;2023-07-28T09:26:21;29.90;90.30
22680;DHT22;11507;44.858;10.374;2023-07-28T09:28:48;30.20;91.10
22680;DHT22;11507;44.858;10.374;2023-07-28T09:31:14;30.60;91.30
22680;DHT22;11507;44.858;10.374;2023-07-28T09:33:42;30.90;90.30
22680;DHT22;11507;44.858;10.374;2023-07-28T09:36:14;30.80;81.00
22680;DHT22;11507;44.858;10.374;2023-07-28T09:38:45;30.60;80.30
22680;DHT22;11507;44.858;10.374;2023-07-28T09:41:11;30.60;83.30
22680;DHT22;11507;44.858;10.374;2023-07-28T09:43:37;30.50;81.00
22680;DHT22;11507;44.858;10.374;2023-07-28T09:46:06;30.60;83.40
22680;DHT22;11507;44.858;10.374;2023-07-28T09:48:33;30.90;89.10
22680;DHT22;11507;44.858;10.374;2023-07-28T09:51:13;31.40;85.60
22680;DHT22;11507;44.858;10.374;2023-07-28T09:53:46;31.70;83.80
22680;DHT22;11507;44.858;10.374;2023-07-28T09:56:15;31.90;86.00
22680;DHT22;11507;44.858;10.374;2023-07-28T09:58:52;32.20;78.10
22680;DHT22;11507;44.858;10.374;2023-07-28T10:01:19;32.30;79.90
22680;DHT22;11507;44.858;10.374;2023-07-28T10:03:47;32.20;79.30
22680;DHT22;11507;44.858;10.374;2023-07-28T10:06:14;32.50;81.20
22680;DHT22;11507;44.858;10.374;2023-07-28T10:08:42;32.50;76.20
22680;DHT22;11507;44.858;10.374;2023-07-28T10:11:14;32.30;72.70
22680;DHT22;11507;44.858;10.374;2023-07-28T10:13:42;32.10;75.40
22680;DHT22;11507;44.858;10.374;2023-07-28T10:16:08;32.10;75.10
22680;DHT22;11507;44.858;10.374;2023-07-28T10:18:40;32.40;75.60
22680;DHT22;11507;44.858;10.374;2023-07-28T10:21:09;32.60;75.40
22680;DHT22;11507;44.858;10.374;2023-07-28T10:23:39;32.70;76.90
22680;DHT22;11507;44.858;10.374;2023-07-28T10:26:05;33.00;71.80
22680;DHT22;11507;44.858;10.374;2023-07-28T10:28:34;33.30;76.60
22680;DHT22;11507;44.858;10.374;2023-07-28T10:31:05;33.80;77.50
22680;DHT22;11507;44.858;10.374;2023-07-28T10:33:44;34.20;74.50
22680;DHT22;11507;44.858;10.374;2023-07-28T10:39:21;33.90;68.40
22680;DHT22;11507;44.858;10.374;2023-07-28T10:42:08;34.00;73.40
22680;DHT22;11507;44.858;10.374;2023-07-28T10:44:37;34.20;69.40
22680;DHT22;11507;44.858;10.374;2023-07-28T10:47:08;34.30;64.90
22680;DHT22;11507;44.858;10.374;2023-07-28T10:49:35;34.30;70.20
22680;DHT22;11507;44.858;10.374;2023-07-28T10:52:00;34.40;68.40
22680;DHT22;11507;44.858;10.374;2023-07-28T10:54:26;34.30;67.20
22680;DHT22;11507;44.858;10.374;2023-07-28T10:56:52;34.10;67.90
22680;DHT22;11507;44.858;10.374;2023-07-28T10:59:18;34.00;65.00
22680;DHT22;11507;44.858;10.374;2023-07-28T11:01:44;34.10;71.50
22680;DHT22;11507;44.858;10.374;2023-07-28T11:04:18;34.30;68.70
22680;DHT22;11507;44.858;10.374;2023-07-28T11:06:46;34.90;69.20
22680;DHT22;11507;44.858;10.374;2023-07-28T11:09:14;35.50;69.40
22680;DHT22;11507;44.858;10.374;2023-07-28T11:11:41;35.40;59.50
22680;DHT22;11507;44.858;10.374;2023-07-28T11:14:08;35.00;62.20
22680;DHT22;11507;44.858;10.374;2023-07-28T11:16:40;34.50;61.50
22680;DHT22;11507;44.858;10.374;2023-07-28T11:19:13;34.20;62.60
22680;DHT22;11507;44.858;10.374;2023-07-28T11:21:43;34.30;61.80
22680;DHT22;11507;44.858;10.374;2023-07-28T11:24:10;34.50;64.70
22680;DHT22;11507;44.858;10.374;2023-07-28T11:26:38;34.70;62.20
22680;DHT22;11507;44.858;10.374;2023-07-28T11:29:04;35.30;66.30
22680;DHT22;11507;44.858;10.374;2023-07-28T11:31:30;35.80;61.00
22680;DHT22;11507;44.858;10.374;2023-07-28T11:33:56;36.00;63.40
22680;DHT22;11507;44.858;10.374;2023-07-28T11:36:31;36.00;58.50
22680;DHT22;11507;44.858;10.374;2023-07-28T11:38:58;35.80;60.80
22680;DHT22;11507;44.858;10.374;2023-07-28T11:41:25;36.20;62.60
22680;DHT22;11507;44.858;10.374;2023-07-28T11:43:52;36.50;61.60
22680;DHT22;11507;44.858;10.374;2023-07-28T11:46:38;36.30;60.80
22680;DHT22;11507;44.858;10.374;2023-07-28T11:49:18;36.80;62.10
22680;DHT22;11507;44.858;10.374;2023-07-28T11:51:51;37.30;58.60
22680;DHT22;11507;44.858;10.374;2023-07-28T11:54:21;37.80;58.90
22680;DHT22;11507;44.858;10.374;2023-07-28T11:56:49;38.10;54.70
22680;DHT22;11507;44.858;10.374;2023-07-28T11:59:16;37.70;56.10
22680;DHT22;11507;44.858;10.374;2023-07-28T12:02:11;37.90;56.70
22680;DHT22;11507;44.858;10.374;2023-07-28T12:04:39;37.70;54.00
22680;DHT22;11507;44.858;10.374;2023-07-28T12:07:48;38.00;53.80
22680;DHT22;11507;44.858;10.374;2023-07-28T12:09:55;38.20;56.40
22680;DHT22;11507;44.858;10.374;2023-07-28T12:12:29;38.10;52.80
22680;DHT22;11507;44.858;10.374;2023-07-28T12:14:58;38.40;56.70
22680;DHT22;11507;44.858;10.374;2023-07-28T12:17:30;38.80;55.00
22680;DHT22;11507;44.858;10.374;2023-07-28T12:20:04;39.10;54.90
22680;DHT22;11507;44.858;10.374;2023-07-28T12:22:40;39.40;54.00
22680;DHT22;11507;44.858;10.374;2023-07-28T12:25:07;39.70;54.00
22680;DHT22;11507;44.858;10.374;2023-07-28T12:27:33;39.80;52.10
22680;DHT22;11507;44.858;10.374;2023-07-28T12:29:59;39.40;49.20
22680;DHT22;11507;44.858;10.374;2023-07-28T12:32:25;39.10;51.30
22680;DHT22;11507;44.858;10.374;2023-07-28T12:34:51;38.90;50.90
22680;DHT22;11507;44.858;10.374;2023-07-28T12:37:17;39.20;52.30
22680;DHT22;11507;44.858;10.374;2023-07-28T12:39:44;38.90;49.60
22680;DHT22;11507;44.858;10.374;2023-07-28T12:42:11;39.10;53.60
22680;DHT22;11507;44.858;10.374;2023-07-28T12:44:38;39.40;50.50
22680;DHT22;11507;44.858;10.374;2023-07-28T12:47:04;39.30;49.70
22680;DHT22;11507;44.858;10.374;2023-07-28T12:49:31;39.20;49.00
22680;DHT22;11507;44.858;10.374;2023-07-28T12:51:58;38.50;48.60
22680;DHT22;11507;44.858;10.374;2023-07-28T12:54:24;38.10;50.30
22680;DHT22;11507;44.858;10.374;2023-07-28T12:56:53;38.30;51.70
22680;DHT22;11507;44.858;10.374;2023-07-28T12:59:18;38.50;49.80
22680;DHT22;11507;44.858;10.374;2023-07-28T13:01:45;38.60;53.70
22680;DHT22;11507;44.858;10.374;2023-07-28T13:04:11;38.90;52.00
22680;DHT22;11507;44.858;10.374;2023-07-28T13:06:37;39.70;52.40
22680;DHT22;11507;44.858;10.374;2023-07-28T13:09:03;40.10;51.70
22680;DHT22;11507;44.858;10.374;2023-07-28T13:11:29;40.30;50.30
22680;DHT22;11507;44.858;10.374;2023-07-28T13:13:55;40.10;50.20
22680;DHT22;11507;44.858;10.374;2023-07-28T13:16:21;39.80;52.00
22680;DHT22;11507;44.858;10.374;2023-07-28T13:18:47;39.50;50.40
22680;DHT22;11507;44.858;10.374;2023-07-28T13:21:13;39.40;52.30
22680;DHT22;11507;44.858;10.374;2023-07-28T13:23:40;39.60;53.90
22680;DHT22;11507;44.858;10.374;2023-07-28T13:26:06;40.20;52.60
22680;DHT22;11507;44.858;10.374;2023-07-28T13:28:33;40.60;50.80
22680;DHT22;11507;44.858;10.374;2023-07-28T13:31:01;40.30;50.30
22680;DHT22;11507;44.858;10.374;2023-07-28T13:33:30;39.80;51.00
